Time;durP1;ratioP1;P1;durP2;ratioP2;P2;SDS_P1;SDS_P2;PMS_P1;PMS_P2;Temp;Humidity;BMP_temperature;BMP_pressure;BME280_temperature;BME280_humidity;BME280_pressure;Samples;Min_cycle;Max_cycle;Signal;HPM_P1;HPM_P2
2021/10/09 00:01:26;;;;;;;9.45;5.97;;;13.30;76.10;;;;;;5026853;28;20033;-82
2021/10/09 00:03:52;;;;;;;10.70;5.78;;;13.30;76.20;;;;;;5036394;28;20041;-82
2021/10/09 00:06:20;;;;;;;7.72;4.75;;;13.30;76.20;;;;;;5018134;28;20025;-82
2021/10/09 00:08:47;;;;;;;11.50;6.10;;;13.20;76.40;;;;;;5018602;28;20033;-82
2021/10/09 00:11:22;;;;;;;10.60;5.70;;;13.30;76.50;;;;;;5012032;28;20044;-82
2021/10/09 00:13:48;;;;;;;9.68;5.53;;;13.30;76.30;;;;;;4999384;28;20496;-82
2021/10/09 00:16:15;;;;;;;10.15;5.97;;;13.30;76.30;;;;;;5016422;28;20145;-81
2021/10/09 00:18:41;;;;;;;9.98;4.93;;;13.30;76.10;;;;;;5001501;28;20033;-81
2021/10/09 00:21:07;;;;;;;10.70;5.47;;;13.30;76.10;;;;;;4998686;28;20105;-81
2021/10/09 00:23:32;;;;;;;9.57;5.75;;;13.30;76.00;;;;;;5016540;28;20034;-81
2021/10/09 00:25:58;;;;;;;10.27;5.55;;;13.30;75.80;;;;;;5031573;28;20029;-82
2021/10/09 00:28:24;;;;;;;9.82;5.55;;;13.30;75.70;;;;;;5025563;28;20032;-82
2021/10/09 00:30:50;;;;;;;13.45;5.97;;;13.30;75.80;;;;;;5016798;28;20022;-82
2021/10/09 00:33:16;;;;;;;11.43;5.93;;;13.30;75.90;;;;;;5016654;28;20195;-81
2021/10/09 00:35:41;;;;;;;10.98;6.35;;;13.20;75.80;;;;;;5016279;28;20033;-82
2021/10/09 00:38:07;;;;;;;10.18;6.05;;;13.30;75.80;;;;;;5016888;28;20133;-82
2021/10/09 00:40:33;;;;;;;8.45;5.53;;;13.20;75.70;;;;;;5016459;28;20024;-81
2021/10/09 00:42:59;;;;;;;13.50;6.95;;;13.20;75.70;;;;;;4998414;28;20481;-82
2021/10/09 00:45:24;;;;;;;11.88;6.35;;;13.20;75.80;;;;;;5016015;28;20602;-81
2021/10/09 00:47:51;;;;;;;10.75;5.88;;;13.20;75.70;;;;;;4998595;28;20033;-82
2021/10/09 00:50:17;;;;;;;15.73;6.80;;;13.20;75.80;;;;;;5022855;28;20033;-81
2021/10/09 00:52:45;;;;;;;9.80;6.05;;;13.20;75.80;;;;;;5017999;28;20037;-82
2021/10/09 00:55:12;;;;;;;14.50;6.20;;;13.20;76.00;;;;;;5023542;28;20031;-81
2021/10/09 00:57:41;;;;;;;10.63;6.50;;;13.20;76.20;;;;;;5015943;28;20022;-81
2021/10/09 01:00:07;;;;;;;11.70;5.68;;;13.20;76.30;;;;;;5006785;28;20044;-81
2021/10/09 01:02:37;;;;;;;12.45;6.65;;;13.20;76.40;;;;;;4998407;28;20403;-82
2021/10/09 01:05:05;;;;;;;12.07;6.30;;;13.20;76.30;;;;;;5015663;28;20030;-82
2021/10/09 01:07:31;;;;;;;14.50;6.78;;;13.20;76.60;;;;;;5015808;28;20033;-82
2021/10/09 01:09:56;;;;;;;14.35;7.63;;;13.20;76.50;;;;;;4998307;28;20377;-82
2021/10/09 01:12:22;;;;;;;11.82;6.57;;;13.20;76.50;;;;;;5015729;28;20030;-82
2021/10/09 01:14:48;;;;;;;13.20;7.03;;;13.10;76.30;;;;;;5015628;28;20026;-81
2021/10/09 01:17:14;;;;;;;12.60;7.22;;;13.10;76.50;;;;;;5015614;28;20100;-81
2021/10/09 01:19:41;;;;;;;9.98;6.50;;;13.00;76.50;;;;;;5015668;28;20080;-82
2021/10/09 01:22:08;;;;;;;14.65;8.40;;;13.00;76.60;;;;;;5015736;28;20037;-81
2021/10/09 01:24:35;;;;;;;12.57;7.07;;;12.90;76.80;;;;;;5006269;28;20083;-81
2021/10/09 01:27:00;;;;;;;11.18;6.95;;;13.00;76.70;;;;;;5032756;28;20025;-82
2021/10/09 01:29:26;;;;;;;16.35;7.93;;;12.90;76.70;;;;;;5015554;28;20022;-82
2021/10/09 01:31:52;;;;;;;11.57;6.25;;;12.90;76.90;;;;;;5001495;28;20120;-82
2021/10/09 01:34:22;;;;;;;12.60;7.10;;;12.90;76.80;;;;;;5019729;28;20033;-81
2021/10/09 01:37:06;;;;;;;;;;;;;;;;;;;;;
2021/10/09 01:39:31;;;;;;;12.15;6.70;;;12.90;76.80;;;;;;5019377;28;20116;-82
2021/10/09 01:41:57;;;;;;;13.48;7.45;;;13.00;76.80;;;;;;5002422;28;20082;-81
2021/10/09 01:44:23;;;;;;;12.85;6.95;;;12.90;76.90;;;;;;5019362;28;20431;-82
2021/10/09 01:46:49;;;;;;;13.45;7.63;;;12.90;76.80;;;;;;5019227;28;20053;-82
2021/10/09 01:49:15;;;;;;;13.07;7.22;;;12.90;76.50;;;;;;5001996;28;20068;-81
2021/10/09 01:51:41;;;;;;;12.00;6.53;;;12.90;76.50;;;;;;5019247;28;20026;-82
2021/10/09 01:54:09;;;;;;;13.20;7.40;;;12.80;76.60;;;;;;5019559;28;20067;-81
2021/10/09 01:56:34;;;;;;;11.02;7.35;;;12.80;76.60;;;;;;5018731;28;20065;-82
2021/10/09 01:59:00;;;;;;;13.60;7.43;;;12.80;76.50;;;;;;5030424;28;20069;-82
2021/10/09 02:01:26;;;;;;;13.30;7.63;;;12.80;76.30;;;;;;5001530;28;20035;-82
2021/10/09 02:03:51;;;;;;;16.55;8.00;;;12.80;76.20;;;;;;5019030;28;20507;-82
2021/10/09 02:06:17;;;;;;;10.35;7.35;;;12.80;76.10;;;;;;5018949;28;20032;-81
2021/10/09 02:08:44;;;;;;;11.25;6.35;;;12.70;76.10;;;;;;5018882;28;20022;-81
2021/10/09 02:11:36;;;;;;;13.07;7.18;;;12.70;76.10;;;;;;5018920;28;20116;-81
2021/10/09 02:14:17;;;;;;;14.85;7.47;;;12.60;76.20;;;;;;5000903;28;20045;-81
2021/10/09 02:27:17;;;;;;;11.55;6.75;;;12.50;76.20;;;;;;5032434;28;20045;-81
2021/10/09 02:29:43;;;;;;;14.73;7.47;;;12.40;76.30;;;;;;5018560;28;20018;-81
2021/10/09 02:32:08;;;;;;;11.35;6.72;;;12.40;76.40;;;;;;5018410;28;20113;-81
2021/10/09 02:34:34;;;;;;;15.68;7.40;;;12.40;76.30;;;;;;5018739;28;20029;-81
2021/10/09 02:37:00;;;;;;;10.10;6.78;;;12.40;76.20;;;;;;5018016;28;20458;-82
2021/10/09 02:39:39;;;;;;;15.13;6.38;;;12.30;76.40;;;;;;5018336;28;20040;-81
2021/10/09 02:42:05;;;;;;;10.77;5.80;;;12.30;76.30;;;;;;5009727;28;20087;-81
2021/10/09 02:44:31;;;;;;;12.75;7.20;;;12.20;76.30;;;;;;5018122;28;20109;-81
2021/10/09 02:46:57;;;;;;;10.02;5.97;;;12.20;76.30;;;;;;5018109;28;20030;-81
2021/10/09 02:49:22;;;;;;;10.43;6.45;;;12.20;76.30;;;;;;5018319;28;20029;-81
2021/10/09 02:51:48;;;;;;;10.15;6.18;;;12.20;76.30;;;;;;5000426;28;20026;-82
2021/10/09 02:54:14;;;;;;;9.27;5.45;;;12.20;76.20;;;;;;5000648;28;20029;-82
2021/10/09 02:56:44;;;;;;;16.75;6.20;;;12.20;76.10;;;;;;5018247;28;20041;-81
2021/10/09 02:59:10;;;;;;;11.48;6.40;;;12.10;76.30;;;;;;5018056;28;20095;-82
2021/10/09 03:01:36;;;;;;;10.50;6.13;;;12.10;76.30;;;;;;5000128;28;20034;-81
2021/10/09 03:04:01;;;;;;;15.85;7.15;;;12.10;76.40;;;;;;5017854;28;20033;-81
2021/10/09 03:06:27;;;;;;;12.90;6.38;;;12.00;76.60;;;;;;5000017;28;20037;-82
2021/10/09 03:08:53;;;;;;;13.80;6.75;;;12.00;76.70;;;;;;5018107;28;20023;-82
2021/10/09 03:11:18;;;;;;;11.63;6.20;;;11.90;76.70;;;;;;5000124;28;20076;-82
2021/10/09 03:13:49;;;;;;;11.07;6.50;;;11.90;76.90;;;;;;5000176;28;20026;-81
2021/10/09 03:16:14;;;;;;;11.77;6.32;;;11.90;76.80;;;;;;5000068;28;20057;-81
2021/10/09 03:18:40;;;;;;;12.65;6.78;;;11.90;76.80;;;;;;5008279;28;20033;-82
2021/10/09 03:21:06;;;;;;;17.48;7.57;;;11.90;76.80;;;;;;5017618;28;20741;-82
2021/10/09 03:23:31;;;;;;;12.05;6.80;;;11.90;76.70;;;;;;4999932;28;20026;-82
2021/10/09 03:25:57;;;;;;;15.30;7.55;;;11.90;76.70;;;;;;5017622;28;20029;-82
2021/10/09 03:28:23;;;;;;;18.98;7.90;;;11.80;76.70;;;;;;5037352;28;20387;-81
2021/10/09 03:30:57;;;;;;;15.23;7.90;;;11.80;76.60;;;;;;5037048;28;20025;-81
2021/10/09 03:33:24;;;;;;;14.00;7.18;;;11.80;76.60;;;;;;5031788;28;20029;-82
2021/10/09 03:35:50;;;;;;;11.50;6.55;;;11.80;76.70;;;;;;4999759;28;20518;-81
2021/10/09 03:38:15;;;;;;;12.27;6.95;;;11.70;76.90;;;;;;5013760;28;20057;-82
2021/10/09 03:40:44;;;;;;;12.38;6.63;;;11.70;76.70;;;;;;5016910;28;20037;-82
2021/10/09 03:43:14;;;;;;;12.02;6.60;;;11.60;77.00;;;;;;5017506;28;20550;-81
2021/10/09 03:48:25;;;;;;;12.80;6.60;;;11.70;77.20;;;;;;5017363;28;20058;-82
2021/10/09 03:53:44;;;;;;;10.43;6.63;;;11.60;77.00;;;;;;5016189;28;20034;-82
2021/10/09 03:56:10;;;;;;;9.63;6.25;;;11.60;77.40;;;;;;5015876;28;20428;-82
2021/10/09 03:58:36;;;;;;;11.80;6.47;;;11.60;77.10;;;;;;5016868;28;20079;-81
2021/10/09 04:01:01;;;;;;;13.10;6.82;;;11.60;77.20;;;;;;5030499;28;20026;-82
2021/10/09 04:03:27;;;;;;;13.00;6.35;;;11.50;77.40;;;;;;5016387;28;20500;-82
2021/10/09 04:05:53;;;;;;;13.00;6.53;;;11.50;77.50;;;;;;5015621;28;20033;-82
2021/10/09 04:08:18;;;;;;;12.07;6.40;;;11.50;77.50;;;;;;5016879;28;20466;-82
2021/10/09 04:10:51;;;;;;;14.48;6.82;;;11.50;77.60;;;;;;5016636;28;20476;-82
2021/10/09 04:13:17;;;;;;;11.00;7.00;;;11.50;77.40;;;;;;5015316;28;20022;-82
2021/10/09 04:15:43;;;;;;;12.45;6.00;;;11.50;77.50;;;;;;5014984;28;20128;-81
2021/10/09 04:18:09;;;;;;;13.88;7.13;;;11.50;77.50;;;;;;5016667;28;20030;-81
2021/10/09 04:20:36;;;;;;;10.10;5.95;;;11.40;77.70;;;;;;5016518;28;20036;-81
2021/10/09 04:23:02;;;;;;;14.63;7.32;;;11.50;77.50;;;;;;5016585;28;20117;-81
2021/10/09 04:25:27;;;;;;;15.30;7.88;;;11.40;77.40;;;;;;5028742;28;20022;-82
2021/10/09 04:27:53;;;;;;;18.73;8.32;;;11.40;77.60;;;;;;5032398;28;20021;-81
2021/10/09 04:30:18;;;;;;;14.90;7.80;;;11.40;77.90;;;;;;5015119;28;20401;-82
2021/10/09 04:32:44;;;;;;;13.25;7.20;;;11.40;77.60;;;;;;5016130;28;20026;-82
2021/10/09 04:35:10;;;;;;;10.60;6.20;;;11.40;77.40;;;;;;5015220;28;20060;-82
2021/10/09 04:37:35;;;;;;;13.65;7.00;;;11.30;77.40;;;;;;5014816;28;20504;-82
2021/10/09 04:40:01;;;;;;;12.98;6.80;;;11.30;77.60;;;;;;5014829;28;20658;-81
2021/10/09 04:42:27;;;;;;;14.05;7.43;;;11.20;77.80;;;;;;5016420;28;20037;-81
2021/10/09 04:44:57;;;;;;;13.20;7.53;;;11.20;78.10;;;;;;5016014;28;20113;-82
2021/10/09 04:47:23;;;;;;;;;;;11.20;78.60;;;;;;5016624;28;20041;-81
2021/10/09 04:49:49;;;;;;;12.98;6.88;;;11.20;78.50;;;;;;5014701;28;19909;-82
2021/10/09 04:52:15;;;;;;;13.77;7.75;;;11.30;78.50;;;;;;5014903;28;20109;-82
2021/10/09 04:54:40;;;;;;;18.30;8.25;;;11.30;78.20;;;;;;5016059;28;20037;-82
2021/10/09 04:57:06;;;;;;;18.58;9.20;;;11.30;78.20;;;;;;5016163;28;20026;-81
2021/10/09 04:59:32;;;;;;;15.30;6.93;;;11.30;78.00;;;;;;5015983;28;20025;-81
2021/10/09 05:02:02;;;;;;;12.88;7.93;;;11.30;77.90;;;;;;5015566;28;20061;-82
2021/10/09 05:04:27;;;;;;;;;;;11.30;78.10;;;;;;5016258;28;20029;-82
2021/10/09 05:06:53;;;;;;;16.30;7.65;;;11.20;78.30;;;;;;5015360;28;20390;-82
2021/10/09 05:09:19;;;;;;;16.33;8.20;;;11.20;78.10;;;;;;5015920;28;20493;-81
2021/10/09 05:11:44;;;;;;;13.90;7.13;;;11.20;78.30;;;;;;5014592;28;20384;-81
2021/10/09 05:14:10;;;;;;;14.82;7.60;;;11.20;78.40;;;;;;5015901;28;20870;-81
2021/10/09 05:16:37;;;;;;;14.45;7.65;;;11.20;78.40;;;;;;5014392;28;20057;-81
2021/10/09 05:19:10;;;;;;;18.77;7.95;;;11.10;78.70;;;;;;5015332;28;20037;-81
2021/10/09 05:21:36;;;;;;;15.30;7.22;;;10.90;79.20;;;;;;5014456;28;20122;-81
2021/10/09 05:24:01;;;;;;;16.00;8.73;;;11.00;79.00;;;;;;5016414;28;20053;-81
2021/10/09 05:26:28;;;;;;;19.92;9.45;;;11.10;78.90;;;;;;5035373;28;20040;-81
2021/10/09 05:28:54;;;;;;;18.02;8.05;;;11.10;79.00;;;;;;5017828;28;20045;-82
2021/10/09 05:31:23;;;;;;;22.40;9.93;;;11.10;79.30;;;;;;5015536;28;20049;-81
2021/10/09 05:33:51;;;;;;;14.50;8.55;;;11.00;79.60;;;;;;5014117;28;20022;-81
2021/10/09 05:36:16;;;;;;;12.73;7.85;;;11.00;79.80;;;;;;5014219;28;20037;-81
2021/10/09 05:38:42;;;;;;;14.80;8.07;;;11.00;79.30;;;;;;4997918;28;20034;-82
2021/10/09 05:41:08;;;;;;;19.75;9.98;;;11.00;79.90;;;;;;5015453;28;20018;-81
2021/10/09 05:43:33;;;;;;;16.83;8.88;;;11.10;79.80;;;;;;5015704;28;20038;-82
2021/10/09 05:45:59;;;;;;;15.95;9.25;;;11.10;79.90;;;;;;4997229;28;20124;-81
2021/10/09 05:48:25;;;;;;;18.00;9.60;;;11.10;79.90;;;;;;5015483;28;20026;-81
2021/10/09 05:58:35;;;;;;;19.33;9.43;;;11.10;80.20;;;;;;5035634;28;20022;-90
2021/10/09 07:00:05;;;;;;;24.10;9.90;;;11.40;79.30;;;;;;5035607;28;20557;-83
2021/10/09 07:02:39;;;;;;;24.17;11.25;;;11.40;79.50;;;;;;5034221;28;20038;-83
2021/10/09 07:05:07;;;;;;;16.88;9.32;;;11.40;79.70;;;;;;5022977;28;20033;-83
2021/10/09 07:07:36;;;;;;;24.65;11.18;;;11.50;79.80;;;;;;5029568;28;20093;-82
2021/10/09 07:10:03;;;;;;;17.98;9.48;;;11.50;79.80;;;;;;5023426;28;20025;-82
2021/10/09 07:12:29;;;;;;;20.02;10.50;;;11.50;79.80;;;;;;5037042;28;20017;-83
2021/10/09 07:14:54;;;;;;;21.88;9.52;;;11.70;79.80;;;;;;5036578;28;20025;-81
2021/10/09 07:17:20;;;;;;;20.75;11.05;;;11.90;79.30;;;;;;5036513;28;20030;-78
2021/10/09 07:19:46;;;;;;;21.58;10.15;;;12.20;78.60;;;;;;5022063;28;20036;-79
2021/10/09 07:22:11;;;;;;;22.27;10.77;;;12.40;78.10;;;;;;5024131;28;20026;-78
2021/10/09 07:24:37;;;;;;;20.27;10.43;;;12.80;77.10;;;;;;5021938;28;20057;-84
2021/10/09 07:27:03;;;;;;;20.83;10.50;;;13.00;75.90;;;;;;5017066;28;20101;-90
2021/10/09 07:29:29;;;;;;;25.98;11.57;;;13.20;75.40;;;;;;5024240;28;20034;-86
2021/10/09 07:31:55;;;;;;;26.13;10.70;;;13.40;74.90;;;;;;5024510;28;20049;-90
2021/10/09 07:34:21;;;;;;;24.25;11.75;;;13.60;74.60;;;;;;5029671;28;20037;-91
2021/10/09 07:36:46;;;;;;;21.10;9.82;;;13.80;74.10;;;;;;5014559;28;20034;-90
2021/10/09 07:39:12;;;;;;;20.70;10.77;;;13.80;73.90;;;;;;5028139;28;20088;-85
2021/10/09 07:41:38;;;;;;;21.23;11.77;;;13.80;74.10;;;;;;5035046;28;20017;-86
2021/10/09 07:44:04;;;;;;;19.88;10.73;;;14.00;73.60;;;;;;5030057;28;20061;-86
2021/10/09 07:46:30;;;;;;;21.90;11.23;;;14.20;73.30;;;;;;5035321;28;20017;-85
2021/10/09 07:48:56;;;;;;;19.38;10.00;;;14.00;73.60;;;;;;5012114;28;20483;-84
2021/10/09 07:51:22;;;;;;;20.27;10.18;;;13.80;74.60;;;;;;5033592;28;20033;-87
2021/10/09 07:53:53;;;;;;;17.08;9.50;;;13.70;75.50;;;;;;5034452;28;20021;-93
2021/10/09 07:56:18;;;;;;;20.17;10.23;;;13.50;75.90;;;;;;5017800;28;20021;-89
2021/10/09 07:58:44;;;;;;;18.35;10.90;;;13.50;76.60;;;;;;5027410;28;20068;-83
2021/10/09 08:01:10;;;;;;;21.20;10.52;;;13.50;76.50;;;;;;5028453;28;20025;-87
2021/10/09 08:03:35;;;;;;;25.25;11.43;;;13.50;76.90;;;;;;5035394;28;20056;-84
2021/10/09 08:07:03;;;;;;;;;;;;;;;;;;;;;
2021/10/09 08:09:41;;;;;;;27.15;10.45;;;13.40;77.20;;;;;;5033103;28;20112;-88
2021/10/09 08:12:13;;;;;;;21.30;10.57;;;13.50;78.00;;;;;;5008561;28;20124;-86
2021/10/09 08:19:25;;;;;;;;;;;;;;;;;;;;;
2021/10/09 08:43:56;;;;;;;17.40;8.90;;;14.20;78.60;;;;;;4792289;29;20055;-89
2021/10/09 08:46:22;;;;;;;22.30;9.35;;;14.20;78.30;;;;;;4792266;29;20054;-80
2021/10/09 08:48:51;;;;;;;19.90;9.23;;;14.30;78.10;;;;;;4898039;28;20169;-84
2021/10/09 08:51:25;;;;;;;17.75;9.98;;;14.40;79.00;;;;;;5001224;28;20527;-85
2021/10/09 08:53:54;;;;;;;19.88;9.27;;;14.50;78.30;;;;;;4997202;28;20104;-85
2021/10/09 08:56:38;;;;;;;17.92;8.68;;;14.50;79.40;;;;;;5016557;28;20025;-86
2021/10/09 08:59:08;;;;;;;17.17;8.35;;;14.60;78.60;;;;;;4997159;28;20044;-86
2021/10/09 09:01:54;;;;;;;18.63;8.77;;;14.70;78.60;;;;;;5015854;28;20101;-89
2021/10/09 09:04:45;;;;;;;20.80;8.90;;;14.70;78.30;;;;;;5009353;28;20034;-85
2021/10/09 09:26:47;;;;;;;14.75;7.45;;;15.40;78.60;;;;;;5001050;28;20045;-80
2021/10/09 10:06:10;;;;;;;11.13;5.60;;;16.70;76.70;;;;;;4741696;30;20070;-88
2021/10/09 10:26:33;;;;;;;9.40;5.22;;;17.30;75.50;;;;;;4716722;30;20052;-89
2021/10/09 10:29:04;;;;;;;9.27;5.43;;;17.40;74.60;;;;;;4743687;30;20051;-87
2021/10/09 10:31:33;;;;;;;11.70;6.38;;;17.40;74.60;;;;;;4848251;29;20040;-80
2021/10/09 10:34:21;;;;;;;10.18;5.35;;;17.50;74.30;;;;;;5002921;28;20044;-83
2021/10/09 10:36:48;;;;;;;10.00;5.72;;;17.60;74.90;;;;;;5035341;28;20029;-84
2021/10/09 10:39:20;;;;;;;9.23;5.63;;;17.70;74.70;;;;;;5037205;28;20032;-83
2021/10/09 10:41:54;;;;;;;8.98;5.50;;;17.70;73.80;;;;;;5035918;28;20203;-78
2021/10/09 10:47:47;;;;;;;7.78;4.03;;;17.80;73.50;;;;;;5035105;28;20116;-84
2021/10/09 10:50:59;;;;;;;10.13;5.18;;;17.90;71.80;;;;;;5033633;28;20022;-85
2021/10/09 10:57:01;;;;;;;8.75;5.35;;;18.20;71.10;;;;;;5029218;28;20072;-84
2021/10/09 10:59:35;;;;;;;8.50;5.25;;;18.20;71.00;;;;;;5028336;28;20026;-77
2021/10/09 11:02:12;;;;;;;8.60;4.55;;;18.30;70.60;;;;;;5022459;28;20033;-79
2021/10/09 11:04:50;;;;;;;9.50;4.90;;;18.30;70.60;;;;;;5026135;28;20043;-79
2021/10/09 11:07:17;;;;;;;6.53;4.45;;;18.40;70.10;;;;;;5022464;28;20068;-77
2021/10/09 11:09:44;;;;;;;7.45;4.55;;;18.40;70.10;;;;;;5026222;28;20161;-77
2021/10/09 11:12:29;;;;;;;8.98;5.18;;;18.50;69.00;;;;;;5030457;28;20040;-77
2021/10/09 11:15:14;;;;;;;6.60;4.32;;;18.60;69.50;;;;;;5012130;28;20879;-77
2021/10/09 11:17:42;;;;;;;8.00;4.80;;;18.60;69.20;;;;;;5018551;28;20034;-76
2021/10/09 11:20:11;;;;;;;8.55;4.80;;;18.70;69.40;;;;;;5018581;28;20033;-77
2021/10/09 11:22:45;;;;;;;7.95;4.68;;;18.70;69.10;;;;;;5015307;28;20030;-77
2021/10/09 11:25:24;;;;;;;5.72;4.38;;;18.80;68.90;;;;;;5015556;28;20101;-79
2021/10/09 11:27:50;;;;;;;8.90;4.43;;;18.80;69.30;;;;;;5018895;28;20108;-76
2021/10/09 11:30:16;;;;;;;5.65;4.10;;;18.90;67.70;;;;;;5023224;28;20433;-77
2021/10/09 11:32:46;;;;;;;7.50;3.70;;;18.90;66.60;;;;;;5016895;28;20349;-76
2021/10/09 11:35:14;;;;;;;7.07;4.70;;;19.00;67.90;;;;;;5034321;28;20037;-85
2021/10/09 11:37:48;;;;;;;6.40;4.22;;;19.00;67.10;;;;;;5034281;28;20030;-85
2021/10/09 11:40:15;;;;;;;9.02;5.35;;;19.00;66.30;;;;;;5029621;28;20025;-81
2021/10/09 11:54:26;;;;;;;8.48;5.47;;;19.30;66.70;;;;;;5035057;28;20025;-79
2021/10/09 11:56:52;;;;;;;10.20;4.97;;;19.30;66.40;;;;;;5033417;28;20027;-78
2021/10/09 11:59:34;;;;;;;7.28;4.57;;;19.30;67.00;;;;;;5034669;28;20021;-79
2021/10/09 12:02:00;;;;;;;7.45;4.72;;;19.40;66.60;;;;;;5014662;28;20025;-78
2021/10/09 12:04:25;;;;;;;7.78;4.25;;;19.50;66.60;;;;;;5032314;28;20032;-79
2021/10/09 12:07:09;;;;;;;7.70;3.80;;;19.50;66.30;;;;;;5035405;28;20064;-77
2021/10/09 12:09:35;;;;;;;7.30;3.72;;;19.60;67.00;;;;;;5035343;28;20069;-78
2021/10/09 12:12:21;;;;;;;6.95;3.90;;;19.70;66.10;;;;;;5014147;28;20568;-78
2021/10/09 12:14:52;;;;;;;4.63;3.13;;;19.70;65.60;;;;;;5031519;28;20381;-78
2021/10/09 12:17:21;;;;;;;6.55;4.07;;;19.70;65.10;;;;;;5030815;28;20033;-78
2021/10/09 12:19:58;;;;;;;7.70;4.10;;;19.80;64.90;;;;;;5015788;28;20036;-79
2021/10/09 12:22:24;;;;;;;7.70;4.10;;;19.80;64.70;;;;;;5033460;28;20033;-79
2021/10/09 12:24:52;;;;;;;6.32;4.05;;;19.80;64.60;;;;;;5032988;28;20080;-81
2021/10/09 12:27:23;;;;;;;5.43;3.22;;;19.80;64.30;;;;;;5035732;28;20087;-79
2021/10/09 12:30:00;;;;;;;6.38;4.13;;;19.80;64.30;;;;;;5011560;28;20503;-78
2021/10/09 12:32:27;;;;;;;5.65;3.97;;;19.90;64.80;;;;;;5015866;28;20041;-79
2021/10/09 12:35:29;;;;;;;5.25;3.67;;;19.90;64.40;;;;;;5009918;28;20025;-81
2021/10/09 12:38:01;;;;;;;7.93;3.95;;;19.90;63.60;;;;;;5010227;28;20038;-79
2021/10/09 12:40:35;;;;;;;9.80;4.30;;;20.00;63.30;;;;;;5030692;28;20026;-79
2021/10/09 12:43:01;;;;;;;7.07;4.00;;;20.00;63.70;;;;;;5016021;28;20032;-80
2021/10/09 12:45:28;;;;;;;10.10;5.40;;;20.00;62.90;;;;;;5034959;28;20050;-79
2021/10/09 12:47:57;;;;;;;12.32;5.28;;;20.00;63.80;;;;;;5033087;28;20037;-80
2021/10/09 12:50:25;;;;;;;7.13;4.53;;;20.10;64.00;;;;;;5034628;28;20603;-79
2021/10/09 12:52:53;;;;;;;6.95;4.10;;;20.10;63.80;;;;;;5017422;28;20034;-79
2021/10/09 12:55:19;;;;;;;6.70;4.00;;;20.00;63.70;;;;;;5014006;28;20039;-79
2021/10/09 12:57:53;;;;;;;7.90;3.72;;;20.10;63.80;;;;;;5034518;28;20025;-79
2021/10/09 13:00:20;;;;;;;6.70;3.60;;;20.10;64.00;;;;;;5032661;28;20108;-79
2021/10/09 13:02:46;;;;;;;6.05;3.67;;;20.20;64.10;;;;;;5016916;28;20036;-79
2021/10/09 13:05:12;;;;;;;6.93;3.72;;;20.20;64.30;;;;;;5032993;28;20037;-79
2021/10/09 13:07:38;;;;;;;4.57;2.92;;;20.30;64.40;;;;;;5017029;28;20112;-79
2021/10/09 13:10:04;;;;;;;6.47;2.95;;;20.30;62.60;;;;;;5034224;28;20053;-79
2021/10/09 13:12:31;;;;;;;4.50;2.67;;;20.30;62.00;;;;;;5034960;28;20025;-79
2021/10/09 13:14:57;;;;;;;5.07;2.78;;;20.30;62.40;;;;;;5033425;28;20017;-79
2021/10/09 13:17:23;;;;;;;4.88;2.42;;;20.30;61.60;;;;;;5034655;28;20471;-79
2021/10/09 13:19:48;;;;;;;4.57;2.70;;;20.30;61.90;;;;;;5032309;28;20353;-79
2021/10/09 13:22:14;;;;;;;5.00;2.83;;;20.30;62.10;;;;;;5016755;28;20026;-79
2021/10/09 13:24:40;;;;;;;3.72;2.47;;;20.20;60.50;;;;;;5018924;28;20026;-79
2021/10/09 13:27:05;;;;;;;3.17;2.55;;;20.30;61.70;;;;;;5031043;28;20025;-79
2021/10/09 13:29:31;;;;;;;5.28;2.28;;;20.30;61.80;;;;;;5028659;28;20390;-79
2021/10/09 13:31:57;;;;;;;4.72;2.20;;;20.30;61.60;;;;;;5000307;28;20030;-80
2021/10/09 13:34:24;;;;;;;3.42;2.40;;;20.30;60.60;;;;;;5019018;28;20428;-79
2021/10/09 13:36:50;;;;;;;5.07;2.35;;;20.30;60.80;;;;;;5034420;28;20518;-79
2021/10/09 13:39:16;;;;;;;2.92;1.92;;;20.30;60.50;;;;;;5031589;28;20092;-79
2021/10/09 13:41:42;;;;;;;4.18;2.08;;;20.30;60.20;;;;;;5021824;28;20108;-79
2021/10/09 13:44:08;;;;;;;4.53;2.08;;;20.30;60.20;;;;;;5015068;28;20040;-79
2021/10/09 13:46:33;;;;;;;3.60;2.40;;;20.30;60.50;;;;;;5004497;28;20132;-78
2021/10/09 13:49:00;;;;;;;3.00;1.38;;;20.30;60.50;;;;;;5014962;28;20512;-79
2021/10/09 13:51:25;;;;;;;3.33;1.70;;;20.30;60.50;;;;;;5014973;28;20030;-78
2021/10/09 13:53:51;;;;;;;2.80;1.88;;;20.40;60.60;;;;;;5014950;28;20060;-79
2021/10/09 13:56:17;;;;;;;4.05;1.88;;;20.40;59.70;;;;;;5015161;28;20041;-79
2021/10/09 13:58:43;;;;;;;3.42;1.98;;;20.40;60.10;;;;;;5014987;28;20041;-79
2021/10/09 14:01:12;;;;;;;4.00;1.88;;;20.40;59.80;;;;;;5015318;28;20477;-79
2021/10/09 14:03:38;;;;;;;3.95;2.05;;;20.50;60.70;;;;;;5032177;28;20037;-80
2021/10/09 14:06:04;;;;;;;2.90;1.98;;;20.50;60.40;;;;;;5031194;28;20138;-80
2021/10/09 14:08:30;;;;;;;2.60;1.70;;;20.50;59.30;;;;;;5033440;28;20018;-80
2021/10/09 14:10:58;;;;;;;4.47;1.45;;;20.50;58.90;;;;;;5011188;28;20026;-79
2021/10/09 14:13:24;;;;;;;2.47;1.77;;;20.50;59.30;;;;;;5006777;28;20083;-79
2021/10/09 14:15:51;;;;;;;3.50;1.75;;;20.50;59.30;;;;;;5033431;28;20026;-79
2021/10/09 14:18:17;;;;;;;3.08;1.98;;;20.50;58.60;;;;;;5033242;28;20104;-82
2021/10/09 14:20:47;;;;;;;3.80;1.80;;;20.50;59.00;;;;;;5033689;28;20075;-80
2021/10/09 14:23:12;;;;;;;2.07;1.73;;;20.50;59.50;;;;;;5023946;28;20057;-79
2021/10/09 14:25:39;;;;;;;3.00;1.70;;;20.50;59.20;;;;;;5011508;28;20328;-77
2021/10/09 14:28:04;;;;;;;2.92;1.60;;;20.50;59.20;;;;;;5028099;28;20033;-80
2021/10/09 14:30:31;;;;;;;3.15;1.40;;;20.50;59.00;;;;;;5044581;28;20029;-80
2021/10/09 14:32:56;;;;;;;2.65;1.40;;;20.50;58.40;;;;;;5031253;28;20037;-79
2021/10/09 14:35:23;;;;;;;2.38;1.60;;;20.40;58.40;;;;;;5039884;28;20025;-79
2021/10/09 14:37:49;;;;;;;2.25;1.80;;;20.40;57.70;;;;;;5049920;28;20033;-79
2021/10/09 14:40:15;;;;;;;6.25;1.77;;;20.40;58.70;;;;;;5030098;28;20026;-79
2021/10/09 14:42:45;;;;;;;2.15;1.40;;;20.40;57.80;;;;;;5018769;28;20032;-79
2021/10/09 14:45:16;;;;;;;2.70;1.63;;;20.40;57.20;;;;;;5011279;28;20075;-79
2021/10/09 14:47:51;;;;;;;2.90;1.70;;;20.40;57.30;;;;;;5033924;28;20037;-79
2021/10/09 15:19:42;;;;;;;3.80;2.00;;;20.20;57.80;;;;;;5036859;28;20033;-78
2021/10/09 15:22:08;;;;;;;2.70;1.95;;;20.20;58.20;;;;;;5024229;28;20037;-78
2021/10/09 15:24:34;;;;;;;3.55;2.00;;;20.20;58.70;;;;;;5030601;28;20036;-79
2021/10/09 15:27:00;;;;;;;4.32;1.83;;;20.20;58.90;;;;;;5058766;28;20055;-79
2021/10/09 15:29:26;;;;;;;2.70;1.88;;;20.20;59.10;;;;;;5034083;28;20070;-80
2021/10/09 15:31:52;;;;;;;2.63;1.60;;;20.20;59.10;;;;;;5036725;28;20053;-78
2021/10/09 15:34:18;;;;;;;2.67;1.83;;;20.10;58.30;;;;;;5016154;28;20022;-78
2021/10/09 15:36:44;;;;;;;3.65;1.92;;;20.10;58.60;;;;;;5025832;28;20357;-79
2021/10/09 15:39:10;;;;;;;4.18;2.20;;;20.10;58.90;;;;;;5005958;28;20056;-77
2021/10/09 15:41:36;;;;;;;4.68;2.15;;;20.00;58.80;;;;;;5032235;28;20024;-81
2021/10/09 15:44:01;;;;;;;3.90;2.10;;;20.00;59.80;;;;;;5032978;28;20065;-81
2021/10/09 15:46:27;;;;;;;7.93;2.42;;;20.00;59.90;;;;;;5033966;28;20042;-81
2021/10/09 15:48:53;;;;;;;3.78;2.33;;;20.00;60.30;;;;;;5015404;28;20026;-81
2021/10/09 15:51:18;;;;;;;3.65;1.95;;;19.90;60.40;;;;;;5033697;28;20032;-82
2021/10/09 15:53:44;;;;;;;5.43;2.97;;;19.90;60.40;;;;;;5036622;28;20028;-79
2021/10/09 15:56:11;;;;;;;4.63;2.90;;;20.00;60.60;;;;;;5028867;28;20085;-79
2021/10/09 15:58:37;;;;;;;3.58;2.58;;;19.90;61.00;;;;;;5030290;28;20030;-78
2021/10/09 16:01:03;;;;;;;4.38;2.75;;;19.80;61.50;;;;;;5034053;28;20036;-88
2021/10/09 16:03:29;;;;;;;5.28;2.80;;;19.80;61.80;;;;;;5034271;28;20124;-81
2021/10/09 16:05:55;;;;;;;4.63;2.50;;;19.70;61.50;;;;;;5035776;28;20105;-86
2021/10/09 16:08:20;;;;;;;6.22;2.72;;;19.70;62.10;;;;;;5034456;28;20026;-86
2021/10/09 16:10:46;;;;;;;4.32;2.25;;;19.70;62.40;;;;;;5035949;28;20022;-81
2021/10/09 16:13:16;;;;;;;3.40;2.17;;;19.70;62.40;;;;;;5032853;28;20060;-82
2021/10/09 16:15:44;;;;;;;4.80;2.53;;;19.60;62.50;;;;;;5018096;28;20022;-84
2021/10/09 16:18:10;;;;;;;8.90;2.47;;;19.50;62.90;;;;;;5017707;28;20129;-79
2021/10/09 16:20:35;;;;;;;7.60;3.03;;;19.50;63.20;;;;;;5035705;28;20172;-79
2021/10/09 16:23:01;;;;;;;5.53;2.47;;;19.50;63.50;;;;;;5032596;28;20044;-82
2021/10/09 16:25:27;;;;;;;4.38;2.53;;;19.40;63.60;;;;;;5035985;28;20025;-80
2021/10/09 16:27:52;;;;;;;5.47;3.10;;;19.40;64.20;;;;;;5035589;28;20030;-81
2021/10/09 16:30:18;;;;;;;6.43;4.00;;;19.30;64.90;;;;;;5034175;28;20534;-82
2021/10/09 16:32:44;;;;;;;7.68;3.70;;;19.20;65.90;;;;;;5017250;28;20022;-79
2021/10/09 16:35:10;;;;;;;7.57;3.95;;;19.20;66.30;;;;;;5016466;28;20041;-81
2021/10/09 16:37:35;;;;;;;6.35;3.45;;;19.10;66.80;;;;;;5030947;28;20026;-83
2021/10/09 16:40:01;;;;;;;7.72;4.25;;;19.10;67.20;;;;;;5033268;28;20052;-82
2021/10/09 16:42:27;;;;;;;6.30;4.25;;;19.00;67.50;;;;;;5034606;28;20052;-84